Hlavní strana
METAR-TAF:

METAR-TAF

Letiště :

Letiště Vitebsk

Vitebsk, Bělorusko

zeměpisná šířka: 55-10N, zeměpisná délka: 030-13E, výška: 176 m

Aktuální stav počasí

Zpráva byla vytvořena před 10 hodinami a 8 minutami, v 18:00 UTC
Západní vítr 10 kt
Teplota 4°C
Vlhkost vzduchu 60%
Tlak 1021 hPa
Viditelnost 10 km a více
Polojasno ve výšce 3600 ft, Cumulonimbus.

METAR: UMII 041800Z 28005MPS 9999 SCT036CB 04/M03 Q1021 R05/D TEMPO 2000 SHRA BKN005

Čas: 07:08 (04:08 UTC)

Předpověď počasí

Zpráva byla vytvořena před 11 hodinami a 6 minutami, v 17:02 UTC
Předpověď platná od 04 v 18 UTC do 05 v 03 UTC
Západní vítr 6 kt s nárazy do 16 kt
Viditelnost: 6000 m
Oblačno až skoro zataženo ve výšce 700 ft
Dočasný
od 04 v 18 UTC do 05 v 03 UTC
vítr z různých směrů 19 kt
Viditelnost: 2000 m
Oblačno až skoro zataženo ve výšce 500 ft
Oblačno až skoro zataženo ve výšce 1200 ft, Cumulonimbus.
dešťové přeháňky

TAF: UMII 041702Z 0418/0503 28003G08MPS 6000 BKN007 TEMPO 0418/0503 VRB10MPS 2000 SHRA BKN005 BKN012CB

Stav a předpovědi počasí z více než 4 000 letišť (zprávy METAR a TAF).

Červené a žluté tečky na mapě představují dostupné meteorologické stanice.

Když kurzor umístíte na tečku, zobrazí se název stanice.

Pak kliknutím zobrazíte stav a předpověď počasí.

Chcete-li změnit mapu, kliknutím na zelené tlačítko se znaménkem +mapu přiblížíte, kliknutím na zelené tlačítko se znaménkem – mapu oddálíte a kliknutím na zelené šipky přejdete na sousední mapy.


METAR-TAF: